Portada
METAR-TAF:

METAR-TAF

Aeropuertos :

Aeropuerto Internacional de Nayaf

Nayaf, Iraq

latitud: 31-59-23N, longitud: 44-24-15E, altitud: 31 m

Observación

El informe se hizo hace 42 minutos, a las 20:00 UTC
Viento calma
Temperatura 20°C
Humedad 30%
Presión 1013 hPa
Visibilidad: 8000 m

METAR: ORNI 202000Z 00000KT 8000 NSC 20/02 Q1013 NOSIG

Hora: 23:42 (20:42 UTC)

Pronóstico

El informe se hizo hace 3 horas y 42 minutos, a las 17:00 UTC
Pronóstico válido del 20 a las 18 UTC al 21 a las 18 UTC
Viento 7 kt del norte-noroeste
Visibilidad: 8000 m
Evolucionando progresivamente
del 21 a las 02 UTC al 21 a las 04 UTC
Viento 10 kt del sur
Visibilidad: 4000 m
Nubes dispersas a una altura de 3000 ft
Polvo extendido

TAF: ORNI 201700Z 2018/2118 33007KT 8000 NSC BECMG 2102/2104 19010KT 4000 DU SCT030

Observaciones y pronósticos meteorológicos de más de 4000 aeropuertos (mensajes METAR y TAF).

Los puntos amarillos y rojos representan las estaciones disponibles.

Ponga el ratón en el punto deseado para ver el nombre de la estación.

Haga clic para ver las observaciones y los pronósticos meteorológicos.

Para cambiar el mapa : haga clic en los botones verdes con una cruz de color negro para hacer un zoom, en el botón verde con un guión para alejar o en las flechas verdes para mapas adyacentes.


METAR-TAF: